This is the latest recevied weather packets stored in our database for station/object N7BTW-13. If no packets are shown the sender has not sent any weather packets the latest 10 day(s).
| Time | Temp. | Humidity | Pressure | Rain* | Wind** | Luminosity | Snow |
|---|---|---|---|---|---|---|---|
| 1777659007 | 18.89° C | 65% | 1017.6 hPa | 0 mm | - | - | - |
| 1777658406 | 19.44° C | 65% | 1017.6 hPa | 0 mm | - | - | - |
| 1777657807 | 18.89° C | 67% | 1017.7 hPa | 0 mm | - | - | - |
| 1777657207 | 18.33° C | 66% | 1017.8 hPa | 0 mm | - | - | - |
| 1777656607 | 17.78° C | 70% | 1017.7 hPa | 0 mm | - | - | - |
| 1777656007 | 17.78° C | 69% | 1017.7 hPa | 0 mm | - | - | - |
| 1777655407 | 17.78° C | 69% | 1017.6 hPa | 0 mm | - | - | - |
| 1777654806 | 17.22° C | 70% | 1017.6 hPa | 0 mm | - | - | - |
| 1777654207 | 16.67° C | 72% | 1017.7 hPa | 0 mm | - | - | - |
| 1777653607 | 16.67° C | 75% | 1017.7 hPa | 0 mm | - | - | - |
| 1777653006 | 15.56° C | 76% | 1017.8 hPa | 0 mm | - | - | - |
| 1777652407 | 15° C | 79% | 1017.9 hPa | 0 mm | - | - | - |
| 1777651806 | 14.44° C | 81% | 1018 hPa | 0 mm | - | - | - |
| 1777651206 | 14.44° C | 80% | 1017.9 hPa | 0 mm | - | - | - |
| 1777650607 | 14.44° C | 80% | 1018 hPa | 0 mm | - | - | - |
| 1777650007 | 14.44° C | 81% | 1018 hPa | 0 mm | - | - | - |
| 1777649406 | 14.44° C | 82% | 1017.9 hPa | 0 mm | - | - | - |
| 1777648806 | 13.89° C | 83% | 1017.7 hPa | 0 mm | - | - | - |
| 1777648206 | 12.78° C | 87% | 1017.7 hPa | 0 mm | - | - | - |
| 1777647607 | 12.22° C | 89% | 1017.6 hPa | 0 mm | - | - | - |
| 1777647008 | 10.56° C | 96% | 1017.6 hPa | 0 mm | - | - | - |
| 1777646406 | 10° C | 99% | 1017.5 hPa | 0 mm | - | - | - |
| 1777645807 | 9.44° C | 99% | 1017.5 hPa | 0 mm | - | - | - |
| 1777645213 | 8.89° C | 99% | 1017.4 hPa | 0 mm | - | - | - |
| 1777644607 | 8.33° C | 99% | 1017.1 hPa | 0 mm | - | - | - |
* Rain latest hour (hover to see other rain measurements)
** Current wind speed in m/s (hover to see current wind gust speed)